Pagrindinis puslapis
METAR-TAF:

METAR-TAF

Oro uostai :

Waco, Teksasas, Jungtinės Amerikos Valstijos

platuma: 31-37-02N, ilguma: 097-13-40W, Aukštis: 157 m

Dabartinis oras

Ataskaita buvo paskelbta 37 minutes, ne 05:51 UTC
Vėjas 13 kt iš Pietų
Temperatūra 31°C
Drėgmė 55%
Slėgis 1013 hPa
Matomumas: 16.1 km
Giedras dangus

METAR: KACT 130551Z AUTO 17013KT 10SM CLR 31/21 A2992 RMK AO2 SLP124 T03110211 10372 20311 403890261 51013

Laikas: 01:28 (06:28 UTC)

Prognozė

Ataskaita buvo paskelbta 1 valandą ir 8 minutes, ne 05:20 UTC
Prognozė galioja nuo 13 metu 06 UTC su 14 metu 06 UTC
Vėjas 13 kt iš Pietų/Pietryčių
Matomumas: 10 km
Mažai debesys ne aukštis 30000 ft

TAF: KACT 130520Z 1306/1406 16013KT P6SM FEW300

Orai ataskaitas ir orų prognozės (METAR, TAF).

turimą stotys yra geltonos ir raudonos taškus žemėlapyje.

Perkelti pele per norėdami pamatyti stoties vardą.

Tada spustelėkite, norėdami matyti oro stebėjimo ir prognozės.

Norėdami pakeisti žemėlapį: spustelėkite ant žalios mygtukų su juodo kryžiaus žemyn,; žalią mygtuką su brūkšneliu, jei norite nutolinti; arba žalių rodyklių gretimoms žemėlapius.


METAR-TAF: